createdAt,value
2023-05-21T00:00:08.356Z,94877.31
2023-05-21T00:02:37.475Z,94869.19
2023-05-21T00:05:04.498Z,94870.78
2023-05-21T00:07:33.920Z,94861.47
2023-05-21T00:10:05.454Z,94859.63
2023-05-21T00:12:34.914Z,94865.50
2023-05-21T00:15:03.924Z,94861.38
2023-05-21T00:17:30.664Z,94852.66
2023-05-21T00:20:00.193Z,94851.25
2023-05-21T00:22:27.118Z,94848.03
2023-05-21T00:24:53.900Z,94854.94
2023-05-21T00:27:20.676Z,94849.63
2023-05-21T00:29:49.590Z,94849.63
2023-05-21T00:32:19.568Z,94851.25
2023-05-21T00:34:46.191Z,94849.63
2023-05-21T00:37:15.227Z,94844.34
2023-05-21T00:39:45.158Z,94844.34
2023-05-21T00:42:12.492Z,94844.34
2023-05-21T00:44:41.572Z,94839.28
2023-05-21T00:47:13.773Z,94835.00
2023-05-21T00:49:41.105Z,94842.16
2023-05-21T00:52:10.009Z,94846.41
2023-05-21T00:54:38.904Z,94843.19
2023-05-21T00:57:06.030Z,94846.41
2023-05-21T00:59:35.356Z,94841.13
2023-05-21T01:02:04.174Z,94835.00
2023-05-21T01:04:31.650Z,94840.09
2023-05-21T01:06:58.701Z,94835.84
2023-05-21T01:09:28.586Z,94842.75
2023-05-21T01:11:57.461Z,94840.09
2023-05-21T01:14:26.860Z,94832.16
2023-05-21T01:16:53.728Z,94823.66
2023-05-21T01:19:24.777Z,94827.09
2023-05-21T01:22:00.818Z,94830.53
2023-05-21T01:24:35.968Z,94828.94
2023-05-21T01:27:07.797Z,94829.97
2023-05-21T01:29:39.123Z,94824.69
2023-05-21T01:32:12.314Z,94822.63
2023-05-21T01:35:01.342Z,94822.81
2023-05-21T01:37:35.204Z,94815.94
2023-05-21T01:40:16.774Z,94815.72
2023-05-21T01:42:45.905Z,94815.47
2023-05-21T01:45:12.781Z,94812.25
2023-05-21T01:47:41.778Z,94823.66
2023-05-21T01:50:08.813Z,94824.44
2023-05-21T01:52:38.354Z,94825.25
2023-05-21T01:55:06.365Z,94819.97
2023-05-21T01:57:35.720Z,94820.19
2023-05-21T02:00:02.589Z,94822.03
2023-05-21T02:02:31.759Z,94815.13
2023-05-21T02:05:00.805Z,94802.91
2023-05-21T02:07:32.719Z,94814.09
2023-05-21T02:10:01.510Z,94811.47
2023-05-21T02:12:28.363Z,94812.25
2023-05-21T02:14:56.376Z,94814.09
2023-05-21T02:17:26.211Z,94800.88
2023-05-21T02:19:52.955Z,94802.72
2023-05-21T02:22:19.738Z,94811.47
2023-05-21T02:24:47.195Z,94811.47
2023-05-21T02:27:13.933Z,94811.47
2023-05-21T02:29:42.763Z,94800.88
2023-05-21T02:32:11.849Z,94802.91
2023-05-21T02:34:42.442Z,94806.16
2023-05-21T02:37:11.533Z,94800.88
2023-05-21T02:39:40.430Z,94801.91
2023-05-21T02:42:07.145Z,94799.03
2023-05-21T02:44:33.858Z,94792.78
2023-05-21T02:47:00.637Z,94799.28
2023-05-21T02:49:29.532Z,94798.44
2023-05-21T02:51:58.394Z,94795.81
2023-05-21T02:54:25.154Z,94799.28
2023-05-21T02:56:51.858Z,94792.34
2023-05-21T02:59:18.507Z,94793.16
2023-05-21T03:01:47.558Z,94792.13
2023-05-21T03:04:16.396Z,94782.59
2023-05-21T03:06:44.742Z,94795.59
2023-05-21T03:09:11.502Z,94800.88
2023-05-21T03:11:38.271Z,94799.28
2023-05-21T03:14:07.481Z,94800.88
2023-05-21T03:16:41.854Z,94793.97
2023-05-21T03:19:08.718Z,94801.69
2023-05-21T03:21:38.264Z,94801.69
2023-05-21T03:24:05.775Z,94805.13
2023-05-21T03:26:32.494Z,94800.06
2023-05-21T03:29:01.391Z,94802.91
2023-05-21T03:31:28.968Z,94810.44
2023-05-21T03:33:58.654Z,94814.09
2023-05-21T03:36:25.443Z,94811.47
2023-05-21T03:38:54.648Z,94804.56
2023-05-21T03:41:21.434Z,94803.94
2023-05-21T03:43:48.097Z,94815.13
2023-05-21T03:46:22.620Z,94803.75
2023-05-21T03:48:52.000Z,94804.78
2023-05-21T03:51:20.865Z,94802.91
2023-05-21T03:53:50.287Z,94802.91
2023-05-21T03:56:19.659Z,94816.13
2023-05-21T03:58:48.485Z,94800.28
2023-05-21T04:01:15.359Z,94808.22
2023-05-21T04:03:44.636Z,94813.50
2023-05-21T04:06:11.440Z,94802.13
2023-05-21T04:08:38.269Z,94801.91
2023-05-21T04:11:10.072Z,94796.03
2023-05-21T04:13:36.778Z,94807.63
2023-05-21T04:16:03.497Z,94799.69
2023-05-21T04:18:30.269Z,94802.56
2023-05-21T04:20:57.009Z,94791.75
2023-05-21T04:23:24.012Z,94799.34
2023-05-21T04:25:51.166Z,94816.38
2023-05-21T04:28:21.162Z,94798.09
2023-05-21T04:30:48.078Z,94798.09
2023-05-21T04:33:18.356Z,94798.31
2023-05-21T04:35:48.393Z,94803.38
2023-05-21T04:38:19.957Z,94799.69
2023-05-21T04:40:55.421Z,94797.06
2023-05-21T04:43:28.354Z,94804.97
2023-05-21T04:46:01.184Z,94811.09
2023-05-21T04:48:28.923Z,94806.00
2023-05-21T04:50:56.803Z,94811.09
2023-05-21T04:53:26.325Z,94805.81
2023-05-21T04:55:56.118Z,94807.63
2023-05-21T04:58:26.371Z,94809.84
2023-05-21T05:00:53.907Z,94807.41
2023-05-21T05:03:20.879Z,94801.31
2023-05-21T05:05:52.448Z,94804.97
2023-05-21T05:08:19.126Z,94797.63
2023-05-21T05:10:48.021Z,94798.66
2023-05-21T05:13:14.735Z,94795.88
2023-05-21T05:15:41.453Z,94809.84
2023-05-21T05:18:12.074Z,94815.13
2023-05-21T05:20:41.504Z,94813.50
2023-05-21T05:23:08.301Z,94807.41
2023-05-21T05:25:37.527Z,94808.22
2023-05-21T05:28:07.092Z,94812.50
2023-05-21T05:30:33.949Z,94809.84
2023-05-21T05:33:01.580Z,94800.72
2023-05-21T05:35:28.400Z,94812.50
2023-05-21T05:37:57.332Z,94801.69
2023-05-21T05:40:26.302Z,94806.59
2023-05-21T05:42:53.462Z,94803.53
2023-05-21T05:45:20.564Z,94805.34
2023-05-21T05:47:49.740Z,94793.97
2023-05-21T05:50:21.107Z,94798.81
2023-05-21T05:52:47.835Z,94795.63
2023-05-21T05:55:14.538Z,94807.00
2023-05-21T05:57:44.997Z,94801.09
2023-05-21T06:00:12.582Z,94796.00
2023-05-21T06:02:39.439Z,94802.44
2023-05-21T06:05:10.068Z,94803.03
2023-05-21T06:07:42.449Z,94792.66
2023-05-21T06:10:09.481Z,94798.59
2023-05-21T06:12:43.316Z,94792.47
2023-05-21T06:15:10.256Z,94794.47
2023-05-21T06:17:39.279Z,94792.41
2023-05-21T06:20:06.674Z,94795.63
2023-05-21T06:22:35.497Z,94779.56
2023-05-21T06:25:02.354Z,94786.00
2023-05-21T06:27:29.129Z,94778.88
2023-05-21T06:29:55.828Z,94783.75
2023-05-21T06:32:25.388Z,94778.44
2023-05-21T06:34:52.200Z,94780.66
2023-05-21T06:37:26.537Z,94778.00
2023-05-21T06:39:55.957Z,94779.03
2023-05-21T06:42:22.700Z,94770.06
2023-05-21T06:44:51.558Z,94771.31
2023-05-21T06:47:20.996Z,94772.34
2023-05-21T06:49:47.725Z,94766.03
2023-05-21T06:52:16.536Z,94766.84
2023-05-21T06:54:45.502Z,94770.28
2023-05-21T06:57:14.318Z,94767.44
2023-05-21T06:59:41.055Z,94770.53
2023-05-21T07:02:13.596Z,94765.25
2023-05-21T07:04:42.529Z,94771.31
2023-05-21T07:07:09.574Z,94762.94
2023-05-21T07:09:38.544Z,94759.06
2023-05-21T07:12:05.492Z,94766.53
2023-05-21T07:14:32.235Z,94757.56
2023-05-21T07:16:58.976Z,94759.19
2023-05-21T07:19:28.063Z,94763.22
2023-05-21T07:21:54.876Z,94765.66
2023-05-21T07:24:21.583Z,94759.53
2023-05-21T07:26:50.587Z,94767.25
2023-05-21T07:29:17.274Z,94762.75
2023-05-21T07:31:44.406Z,94781.06
2023-05-21T07:34:13.283Z,94776.59
2023-05-21T07:36:42.137Z,94774.53
2023-05-21T07:39:08.797Z,94767.97
2023-05-21T07:41:37.931Z,94758.44
2023-05-21T07:44:07.908Z,94767.53
2023-05-21T07:46:34.973Z,94768.13
2023-05-21T07:49:03.923Z,94766.63
2023-05-21T07:51:30.999Z,94764.56
2023-05-21T07:54:00.054Z,94761.91
2023-05-21T07:56:26.953Z,94764.13
2023-05-21T07:58:54.032Z,94754.13
2023-05-21T08:01:28.596Z,94748.59
2023-05-21T08:03:55.897Z,94758.13
2023-05-21T08:06:24.402Z,94765.03
2023-05-21T08:08:51.089Z,94760.09
2023-05-21T08:11:17.887Z,94762.50
2023-05-21T08:13:44.494Z,94754.72
2023-05-21T08:16:11.618Z,94754.72
2023-05-21T08:18:41.370Z,94760.59
2023-05-21T08:21:10.143Z,94755.28
2023-05-21T08:23:39.100Z,94754.25
2023-05-21T08:26:07.076Z,94751.63
2023-05-21T08:28:36.095Z,94758.97
2023-05-21T08:31:03.207Z,94756.34
2023-05-21T08:33:34.696Z,94756.34
2023-05-21T08:36:03.584Z,94760.00
2023-05-21T08:38:30.662Z,94755.97
2023-05-21T08:40:59.746Z,94758.41
2023-05-21T08:43:29.664Z,94757.56
2023-05-21T08:45:57.399Z,94760.81
2023-05-21T08:48:26.655Z,94759.56
2023-05-21T08:50:54.031Z,94757.47
2023-05-21T08:53:28.527Z,94750.59
2023-05-21T08:55:55.894Z,94757.47
2023-05-21T08:58:24.860Z,94748.50
2023-05-21T09:00:51.606Z,94748.50
2023-05-21T09:03:20.761Z,94760.81
2023-05-21T09:05:49.826Z,94752.06
2023-05-21T09:08:21.639Z,94755.16
2023-05-21T09:10:55.544Z,94763.22
2023-05-21T09:13:24.937Z,94759.09
2023-05-21T09:15:54.667Z,94766.44
2023-05-21T09:18:23.553Z,94752.66
2023-05-21T09:20:52.359Z,94762.78
2023-05-21T09:23:19.120Z,94759.91
2023-05-21T09:25:47.408Z,94758.63
2023-05-21T09:28:15.234Z,94763.50
2023-05-21T09:30:46.518Z,94760.03
2023-05-21T09:33:13.655Z,94762.47
2023-05-21T09:35:48.587Z,94754.97
2023-05-21T09:38:18.376Z,94755.88
2023-05-21T09:40:49.863Z,94752.78
2023-05-21T09:43:16.586Z,94748.97
2023-05-21T09:45:56.625Z,94746.59
2023-05-21T09:48:34.697Z,94757.75
2023-05-21T09:51:13.548Z,94750.97
2023-05-21T09:53:44.293Z,94747.44
2023-05-21T09:56:11.342Z,94748.03
2023-05-21T09:58:38.386Z,94740.50
2023-05-21T10:01:05.304Z,94745.00
2023-05-21T10:03:34.115Z,94740.50
2023-05-21T10:06:00.985Z,94745.78
2023-05-21T10:08:27.723Z,94738.56
2023-05-21T10:10:54.492Z,94733.13
2023-05-21T10:13:24.410Z,94733.25
2023-05-21T10:15:55.764Z,94734.63
2023-05-21T10:18:22.560Z,94738.88
2023-05-21T10:20:51.929Z,94722.31
2023-05-21T10:23:18.916Z,94726.59
2023-05-21T10:25:48.336Z,94724.16
2023-05-21T10:28:17.061Z,94723.34
2023-05-21T10:30:46.500Z,94725.53
2023-05-21T10:33:16.675Z,94723.56
2023-05-21T10:35:43.737Z,94725.44
2023-05-21T10:38:13.259Z,94724.41
2023-05-21T10:40:39.983Z,94718.53
2023-05-21T10:43:25.383Z,94713.09
2023-05-21T10:46:10.619Z,94718.16
2023-05-21T10:48:59.058Z,94715.88
2023-05-21T10:51:29.492Z,94718.28
2023-05-21T10:54:23.950Z,94710.13
2023-05-21T10:57:09.496Z,94718.53
2023-05-21T10:59:46.883Z,94718.97
2023-05-21T11:02:17.909Z,94720.56
2023-05-21T11:04:49.343Z,94716.19
2023-05-21T11:07:21.862Z,94724.50
2023-05-21T11:09:50.999Z,94717.13
2023-05-21T11:12:23.154Z,94717.94
2023-05-21T11:14:57.250Z,94718.75
2023-05-21T11:17:44.468Z,94708.94
2023-05-21T11:20:14.540Z,94708.94
2023-05-21T11:22:41.169Z,94701.16
2023-05-21T11:25:08.256Z,94698.84
2023-05-21T11:27:36.004Z,94693.53
2023-05-21T11:30:08.174Z,94701.47
2023-05-21T11:32:41.516Z,94698.84
2023-05-21T11:35:11.455Z,94697.22
2023-05-21T11:37:40.806Z,94702.50
2023-05-21T11:40:18.177Z,94699.66
2023-05-21T11:42:49.045Z,94690.13
2023-05-21T11:45:20.439Z,94694.59
2023-05-21T11:47:48.671Z,94693.53
2023-05-21T11:50:15.636Z,94691.94
2023-05-21T11:52:42.612Z,94695.16
2023-05-21T11:55:09.736Z,94684.56
2023-05-21T11:57:40.709Z,94686.19
2023-05-21T12:00:13.811Z,94678.72
2023-05-21T12:02:51.438Z,94683.22
2023-05-21T12:05:18.445Z,94686.91
2023-05-21T12:07:51.643Z,94679.75
2023-05-21T12:10:21.791Z,94678.97
2023-05-21T12:12:56.598Z,94678.13
2023-05-21T12:15:27.887Z,94676.06
2023-05-21T12:17:55.190Z,94678.13
2023-05-21T12:20:24.380Z,94672.06
2023-05-21T12:22:51.199Z,94674.47
2023-05-21T12:25:23.779Z,94678.59
2023-05-21T12:27:58.006Z,94682.63
2023-05-21T12:30:27.789Z,94683.44
2023-05-21T12:33:02.609Z,94668.59
2023-05-21T12:35:32.840Z,94673.31
2023-05-21T12:38:03.482Z,94662.72
2023-05-21T12:40:41.046Z,94659.06
2023-05-21T12:43:07.999Z,94662.72
2023-05-21T12:45:39.383Z,94653.97
2023-05-21T12:48:06.451Z,94655.84
2023-05-21T12:50:41.027Z,94666.41
2023-05-21T12:53:09.148Z,94655.69
2023-05-21T12:55:38.704Z,94664.81
2023-05-21T12:58:08.486Z,94662.72
2023-05-21T13:00:36.310Z,94659.50
2023-05-21T13:03:04.457Z,94653.50
2023-05-21T13:05:33.831Z,94657.91
2023-05-21T13:08:03.289Z,94655.84
2023-05-21T13:10:32.250Z,94652.63
2023-05-21T13:13:01.982Z,94656.28
2023-05-21T13:15:29.083Z,94658.69
2023-05-21T13:17:57.259Z,94654.22
2023-05-21T13:20:27.997Z,94656.88
2023-05-21T13:22:54.813Z,94657.44
2023-05-21T13:25:25.368Z,94648.94
2023-05-21T13:27:52.666Z,94647.91
2023-05-21T13:30:19.696Z,94649.50
2023-05-21T13:32:46.659Z,94646.88
2023-05-21T13:35:13.574Z,94644.44
2023-05-21T13:37:40.872Z,94647.91
2023-05-21T13:40:11.610Z,94646.88
2023-05-21T13:42:41.132Z,94652.16
2023-05-21T13:45:12.223Z,94651.69
2023-05-21T13:47:40.400Z,94648.47
2023-05-21T13:50:10.831Z,94653.31
2023-05-21T13:52:37.829Z,94649.03
2023-05-21T13:55:06.109Z,94652.50
2023-05-21T13:57:35.345Z,94646.88
2023-05-21T14:00:04.827Z,94649.03
2023-05-21T14:02:33.663Z,94644.78
2023-05-21T14:05:03.492Z,94648.00
2023-05-21T14:07:30.205Z,94633.06
2023-05-21T14:09:56.938Z,94642.72
2023-05-21T14:12:26.369Z,94641.13
2023-05-21T14:14:55.781Z,94632.81
2023-05-21T14:17:24.989Z,94639.50
2023-05-21T14:19:54.014Z,94644.78
2023-05-21T14:22:23.056Z,94639.50
2023-05-21T14:24:51.983Z,94635.25
2023-05-21T14:27:20.892Z,94639.03
2023-05-21T14:29:47.663Z,94639.03
2023-05-21T14:32:14.907Z,94635.34
2023-05-21T14:34:41.669Z,94630.06
2023-05-21T14:37:08.421Z,94639.63
2023-05-21T14:39:35.157Z,94627.22
2023-05-21T14:42:04.655Z,94636.97
2023-05-21T14:44:34.092Z,94639.84
2023-05-21T14:47:03.248Z,94630.06
2023-05-21T14:49:29.989Z,94640.66
2023-05-21T14:51:57.002Z,94647.53
2023-05-21T14:54:23.770Z,94644.91
2023-05-21T14:56:55.228Z,94645.16
2023-05-21T14:59:22.029Z,94642.25
2023-05-21T15:01:51.154Z,94642.25
2023-05-21T15:04:20.605Z,94649.16
2023-05-21T15:06:50.532Z,94649.16
2023-05-21T15:09:17.229Z,94646.75
2023-05-21T15:11:46.390Z,94649.16
2023-05-21T15:14:15.409Z,94647.53
2023-05-21T15:16:42.254Z,94645.94
2023-05-21T15:19:11.533Z,94645.94
2023-05-21T15:21:38.794Z,94649.16
2023-05-21T15:24:05.779Z,94648.38
2023-05-21T15:26:34.853Z,94652.84
2023-05-21T15:29:02.903Z,94648.59
2023-05-21T15:31:31.622Z,94655.47
2023-05-21T15:34:00.981Z,94645.16
2023-05-21T15:36:27.725Z,94644.34
2023-05-21T15:38:56.569Z,94656.53
2023-05-21T15:41:23.338Z,94655.47
2023-05-21T15:43:53.096Z,94654.91
2023-05-21T15:46:19.849Z,94652.84
2023-05-21T15:48:46.607Z,94649.97
2023-05-21T15:51:13.345Z,94655.47
2023-05-21T15:53:40.167Z,94652.03
2023-05-21T15:56:09.089Z,94665.03
2023-05-21T15:58:38.028Z,94664.25
2023-05-21T16:01:07.014Z,94661.81
2023-05-21T16:03:36.564Z,94660.56
2023-05-21T16:06:07.960Z,94659.97
2023-05-21T16:08:34.690Z,94659.72
2023-05-21T16:11:01.474Z,94665.28
2023-05-21T16:13:28.318Z,94666.31
2023-05-21T16:15:57.406Z,94672.38
2023-05-21T16:18:28.848Z,94663.88
2023-05-21T16:20:56.378Z,94669.75
2023-05-21T16:23:26.597Z,94672.38
2023-05-21T16:25:55.925Z,94665.50
2023-05-21T16:28:27.250Z,94681.34
2023-05-21T16:30:54.569Z,94686.66
2023-05-21T16:33:21.424Z,94685.03
2023-05-21T16:35:48.239Z,94684.25
2023-05-21T16:38:18.084Z,94694.00
2023-05-21T16:40:45.405Z,94700.13
2023-05-21T16:43:15.817Z,94691.38
2023-05-21T16:45:49.089Z,94695.03
2023-05-21T16:48:18.106Z,94695.88
2023-05-21T16:50:46.107Z,94699.31
2023-05-21T16:53:13.806Z,94697.69
2023-05-21T16:55:42.681Z,94708.25
2023-05-21T16:58:13.674Z,94712.75
2023-05-21T17:00:40.447Z,94718.84
2023-05-21T17:03:07.224Z,94710.34
2023-05-21T17:05:36.493Z,94720.91
2023-05-21T17:08:03.833Z,94719.88
2023-05-21T17:10:30.515Z,94731.50
2023-05-21T17:13:01.818Z,94719.88
2023-05-21T17:15:33.472Z,94722.53
2023-05-21T17:18:02.540Z,94717.69
2023-05-21T17:20:31.387Z,94722.53
2023-05-21T17:23:00.461Z,94719.31
2023-05-21T17:25:27.238Z,94712.97
2023-05-21T17:27:56.221Z,94719.31
2023-05-21T17:30:27.723Z,94717.69
2023-05-21T17:32:55.057Z,94722.97
2023-05-21T17:35:23.991Z,94720.91
2023-05-21T17:37:53.605Z,94722.97
2023-05-21T17:40:21.417Z,94732.75
2023-05-21T17:42:50.352Z,94731.94
2023-05-21T17:45:19.224Z,94738.84
2023-05-21T17:47:48.184Z,94737.25
2023-05-21T17:50:18.300Z,94736.22
2023-05-21T17:52:47.689Z,94732.38
2023-05-21T17:55:17.222Z,94742.53
2023-05-21T17:57:46.119Z,94740.91
2023-05-21T18:00:13.121Z,94739.28
2023-05-21T18:02:39.943Z,94744.56
2023-05-21T18:05:15.249Z,94745.38
2023-05-21T18:07:44.182Z,94740.91
2023-05-21T18:10:11.132Z,94744.56
2023-05-21T18:12:37.924Z,94747.47
2023-05-21T18:15:04.949Z,94752.50
2023-05-21T18:17:31.680Z,94747.47
2023-05-21T18:20:00.627Z,94754.34
2023-05-21T18:22:29.513Z,94758.81
2023-05-21T18:24:58.383Z,94745.47
2023-05-21T18:27:25.132Z,94758.25
2023-05-21T18:29:54.037Z,94759.28
2023-05-21T18:32:23.769Z,94759.28
2023-05-21T18:34:50.617Z,94766.19
2023-05-21T18:37:19.697Z,94764.56
2023-05-21T18:39:48.652Z,94756.06
2023-05-21T18:42:18.342Z,94756.50
2023-05-21T18:44:47.871Z,94778.69
2023-05-21T18:47:14.727Z,94778.91
2023-05-21T18:49:41.654Z,94781.75
2023-05-21T18:52:11.429Z,94781.19
2023-05-21T18:54:38.151Z,94793.97
2023-05-21T18:57:05.070Z,94790.31
2023-05-21T18:59:31.756Z,94803.28
2023-05-21T19:02:01.691Z,94805.13
2023-05-21T19:04:28.748Z,94807.19
2023-05-21T19:06:55.923Z,94801.31
2023-05-21T19:09:27.388Z,94803.38
2023-05-21T19:11:56.234Z,94805.06
2023-05-21T19:14:22.884Z,94813.69
2023-05-21T19:16:53.113Z,94806.34
2023-05-21T19:19:19.808Z,94804.72
2023-05-21T19:21:46.542Z,94808.81
2023-05-21T19:24:13.188Z,94803.97
2023-05-21T19:26:42.122Z,94801.34
2023-05-21T19:29:11.020Z,94803.53
2023-05-21T19:31:39.156Z,94801.25
2023-05-21T19:34:10.483Z,94799.44
2023-05-21T19:36:52.175Z,94792.88
2023-05-21T19:39:20.634Z,94795.31
2023-05-21T19:41:47.412Z,94799.00
2023-05-21T19:44:14.190Z,94797.38
2023-05-21T19:46:40.972Z,94800.03
2023-05-21T19:49:10.484Z,94807.13
2023-05-21T19:51:42.216Z,94802.66
2023-05-21T19:54:13.640Z,94806.34
2023-05-21T19:56:42.503Z,94808.97
2023-05-21T19:59:11.942Z,94813.22
2023-05-21T20:01:43.372Z,94808.97
2023-05-21T20:04:10.806Z,94797.22
2023-05-21T20:06:40.574Z,94801.06
2023-05-21T20:09:12.015Z,94811.63
2023-05-21T20:11:42.267Z,94806.34
2023-05-21T20:14:11.821Z,94804.72
2023-05-21T20:16:38.674Z,94809.56
2023-05-21T20:19:05.849Z,94813.22
2023-05-21T20:21:34.843Z,94811.63
2023-05-21T20:24:04.076Z,94803.13
2023-05-21T20:26:35.053Z,94803.13
2023-05-21T20:29:06.461Z,94796.19
2023-05-21T20:31:39.146Z,94800.22
2023-05-21T20:34:07.848Z,94801.84
2023-05-21T20:36:35.762Z,94798.25
2023-05-21T20:39:02.761Z,94809.28
2023-05-21T20:41:36.129Z,94798.13
2023-05-21T20:44:06.422Z,94806.63
2023-05-21T20:46:35.439Z,94802.94
2023-05-21T20:49:02.273Z,94803.63
2023-05-21T20:51:31.378Z,94802.06
2023-05-21T20:53:58.077Z,94808.97
2023-05-21T20:56:40.842Z,94807.34
2023-05-21T20:59:12.128Z,94804.13
2023-05-21T21:01:41.499Z,94799.75
2023-05-21T21:04:10.586Z,94811.47
2023-05-21T21:06:40.587Z,94809.88
2023-05-21T21:09:11.976Z,94817.59
2023-05-21T21:11:41.181Z,94809.03
2023-05-21T21:14:10.527Z,94815.81
2023-05-21T21:16:39.566Z,94812.13
2023-05-21T21:19:06.369Z,94821.69
2023-05-21T21:21:33.288Z,94819.28
2023-05-21T21:24:02.115Z,94819.28
2023-05-21T21:26:31.614Z,94813.38
2023-05-21T21:29:00.464Z,94812.78
2023-05-21T21:31:29.421Z,94805.72
2023-05-21T21:33:58.380Z,94813.25
2023-05-21T21:36:28.891Z,94815.88
2023-05-21T21:41:42.222Z,94809.56
2023-05-21T21:44:14.503Z,94810.38
2023-05-21T21:46:43.469Z,94815.09
2023-05-21T21:49:10.235Z,94804.69
2023-05-21T21:51:39.077Z,94811.63
2023-05-21T21:54:05.861Z,94814.25
2023-05-21T21:56:32.587Z,94809.97
2023-05-21T21:59:01.548Z,94811.63
2023-05-21T22:01:28.554Z,94805.69
2023-05-21T22:03:59.992Z,94810.94
2023-05-21T22:06:32.020Z,94814.66
2023-05-21T22:08:58.796Z,94815.53
2023-05-21T22:11:27.014Z,94815.72
2023-05-21T22:14:00.415Z,94809.97
2023-05-21T22:16:30.331Z,94811.63
2023-05-21T22:18:58.182Z,94809.56
2023-05-21T22:21:27.409Z,94806.34
2023-05-21T22:23:56.459Z,94803.84
2023-05-21T22:26:23.318Z,94801.81
2023-05-21T22:28:52.743Z,94799.75
2023-05-21T22:31:21.747Z,94801.34
2023-05-21T22:33:53.657Z,94802.16
2023-05-21T22:36:22.692Z,94801.50
2023-05-21T22:38:51.510Z,94793.13
2023-05-21T22:41:20.795Z,94792.09
2023-05-21T22:43:47.513Z,94794.31
2023-05-21T22:46:16.846Z,94795.91
2023-05-21T22:48:48.080Z,94793.03
2023-05-21T22:51:19.203Z,94794.44
2023-05-21T22:53:50.605Z,94789.72
2023-05-21T22:56:20.027Z,94785.28
2023-05-21T22:58:46.720Z,94789.28
2023-05-21T23:01:13.439Z,94783.56
2023-05-21T23:03:40.097Z,94784.16
2023-05-21T23:06:10.048Z,94783.13
2023-05-21T23:08:36.722Z,94784.72
2023-05-21T23:11:05.646Z,94782.66
2023-05-21T23:13:36.951Z,94786.94
2023-05-21T23:16:05.934Z,94767.63
2023-05-21T23:18:37.438Z,94780.41
2023-05-21T23:21:04.174Z,94777.50
2023-05-21T23:23:33.152Z,94782.59
2023-05-21T23:26:00.382Z,94776.47
2023-05-21T23:28:29.713Z,94772.22
2023-05-21T23:30:58.674Z,94768.34
2023-05-21T23:33:25.483Z,94767.31
2023-05-21T23:35:57.366Z,94778.25
2023-05-21T23:38:26.884Z,94771.09
2023-05-21T23:40:56.357Z,94771.91
2023-05-21T23:43:25.204Z,94777.22
2023-05-21T23:45:51.940Z,94768.25
2023-05-21T23:48:18.670Z,94775.72
2023-05-21T23:50:48.346Z,94772.50
2023-05-21T23:53:17.741Z,94764.56
2023-05-21T23:55:44.596Z,94773.91
2023-05-21T23:58:11.500Z,94770.44
